Vision Builder 5K Run

back to results

May. 10, 2008

Vision Builder 5K Run
Hudson Mills Metropark
Provided by Everal Race Management


Overall Male Open Winners

Place Name City Bib No Age Overall Time Pace
1 Bradford Coyle 18 21 1 16:58.9 5:28/M

Overall Male Masters Winners

Place Name City Bib No Age Overall Time Pace
1 Dave Furey Ann Arbor MI 1 49 4 18:04.7 5:50/M

Overall Male Grand Masters Winners

Place Name City Bib No Age Overall Time Pace
1 Gary Smith Dexter 40 54 13 20:48.2 6:43/M

Male 10 and Under

Place Name City Bib No Age Overall Time Pace
1 Michael Rigney Ann Arbor MI 106 10 48 25:21.7 8:11/M
2 Eric Stanffer Ann Arbor MI 515 10 93 29:50.0 9:37/M
3 Duncan Darnell Ann Arbor MI 221 8 98 31:00.7 10:00/M

Male 11 to 14

Place Name City Bib No Age Overall Time Pace
1 Dylan Kalwa Pennington 90 14 18 21:46.1 7:01/M
2 Andrew Wood 120 14 19 21:53.2 7:04/M
3 Adam Gaboury Ann Arbor 98 11 37 24:17.7 7:50/M
4 Nick Rosser 119 14 42 24:31.8 7:55/M
5 Bryan Aaron Ann Arbor MI 513 13 99 31:01.3 10:00/M

Male 15 to 19

Place Name City Bib No Age Overall Time Pace
1 Matt Carlson Plymouth MI 76 18 14 21:10.3 6:50/M
2 Christian Kalwa Pennington 91 15 16 21:40.7 6:59/M
3 Ross Schwarz Plymouth MI 519 18 24 22:27.5 7:15/M
4 Alan Wisniewski Sterling Heights M 131 15 34 23:56.9 7:43/M
5 Jonathon Templeton 208 19 102 31:06.4 10:02/M

Male 20 to 24

Place Name City Bib No Age Overall Time Pace
1 Eric Anderson Ann Arbor 142 20 2 17:40.0 5:42/M
2 Dwight Nagel Georgetown 130 21 23 22:15.8 7:11/M
3 Eric Williams 109 24 27 22:34.0 7:17/M
4 Stephen Devries Ann Arbor MI 184 23 39 24:21.3 7:51/M
5 Christopher Zbrozek Ann Arbor 47 24 44 24:43.2 7:58/M

Male 25 to 29

Place Name City Bib No Age Overall Time Pace
1 Jay Bodley Ann Arbor 151 27 3 17:56.3 5:47/M
2 Thomas Wagner Ann Arbor MI 504 27 11 20:34.6 6:38/M
3 Jack Chan Lansing MI 228 29 17 21:41.6 7:00/M
4 Adam Kripke Ann Arbor MI 217 29 40 24:21.9 7:51/M

Male 30 to 34

Place Name City Bib No Age Overall Time Pace
1 Markus Nee Ann Arbor 133 34 30 23:24.2 7:33/M
2 Andy Shugard Ann Arbor MI 218 30 31 23:31.7 7:35/M
3 Brad Edmonds Saline 158 30 49 25:28.2 8:13/M
4 Guido Bommer Ann Arbor MI 226 34 63 26:17.4 8:29/M
5 Charles Zugell Gibsonia 173 31 78 28:21.4 9:09/M
6 Andrew Cluley Ypsilanti 152 34 126 39:58.0 12:54/M

Male 35 to 39

Place Name City Bib No Age Overall Time Pace
1 Hans Anderson Ann Arbor 202 39 9 20:11.1 6:31/M
2 Matt Callow Ann Arbor 52 37 20 22:03.0 7:07/M
3 William Boulware Livonia 124 38 54 25:47.3 8:19/M
4 Scott Lynch Northville 93 39 67 27:17.4 8:48/M
5 Edward Nam 522 39 110 32:26.1 10:28/M
6 Matt Williams Ann Arbor MI 41 38 122 36:25.0 11:45/M

Male 40 to 44

Place Name City Bib No Age Overall Time Pace
1 Louis Probst Ann Arbor MI 521 42 5 18:47.0 6:04/M
2 Kirk Carlson Plymouth MI 77 43 10 20:14.4 6:32/M
3 Andrew Weeden Adrian 104 43 26 22:29.4 7:15/M
4 Jon Cioffi Ann Arbor 195 40 41 24:30.7 7:54/M
5 Steven Talkat Warren MI 502 43 71 27:49.9 8:58/M
6 Matt Tudor Commerce Twp 121 41 72 28:00.0 9:02/M

Male 45 to 49

Place Name City Bib No Age Overall Time Pace
1 Brian Wright South Lyon MI 212 45 22 22:04.9 7:07/M
2 Terry Root Pinckney MI 166 47 29 23:24.0 7:33/M
3 Scott Gaboury Ann Arbor MI 99 46 38 24:18.1 7:50/M
4 Robert Michalowski Ann Arbor 147 46 56 25:56.6 8:22/M
5 Richard Knapp 54 47 89 29:38.3 9:34/M
6 Scott Vadovich Fenton 148 46 130 42:03.2 13:34/M

Male 50 to 54

Place Name City Bib No Age Overall Time Pace
1 John Bodley Northville 136 53 25 22:27.7 7:15/M
2 David Freiband Ann Arbor 110 52 81 28:46.2 9:17/M
3 Michael Demsky Brighton 58 53 101 31:04.5 10:01/M

Male 55 to 59

Place Name City Bib No Age Overall Time Pace
1 Paul Maxwell Ann Arbor 192 55 65 26:31.2 8:33/M
2 Joshua Pokempner 185 58 131 43:55.7 14:10/M

Male 60 to 69

Place Name City Bib No Age Overall Time Pace
1 Wally Herrala Ann Arbor MI 216 63 15 21:19.0 6:53/M
2 Ron Reinke Wixom 61 60 21 22:04.0 7:07/M
3 John Causland Ann Arbor MI 224 60 45 24:58.6 8:03/M
4 Tom Santoro Gregory MI 510 64 46 25:06.1 8:06/M
5 David Blough Dexter MI 127 62 58 26:07.3 8:25/M
6 Richard Johnson South Lyon 194 61 87 29:24.7 9:29/M
7 Howard Lin Ann Arbor 141 64 118 35:18.5 11:23/M
8 Carl Anderson 89 66 123 38:46.1 12:30/M

Male 70 to 79

Place Name City Bib No Age Overall Time Pace
1 Hugh Sweeney Novi MI 38 77 73 28:03.6 9:03/M
2 Ronald Gill Pleasant Lake MI 209 71 92 29:46.0 9:36/M




Overall Female Open Winners

Place Name City Bib No Age Overall Time Pace
1 Andrea Kremer Farmington Hills 63 25 6 18:57.4 6:07/M

Overall Female Masters Winners

Place Name City Bib No Age Overall Time Pace
1 Barbara Rigney Ann Arbor MI 107 47 28 22:42.3 7:19/M

Overall Female Grand Masters Winners

Place Name City Bib No Age Overall Time Pace
1 Carol Santoro Gregory MI 509 62 61 26:15.9 8:28/M

Female 10 and under

Place Name City Bib No Age Overall Time Pace
1 Elizabeth Weeden Adrian 102 9 120 36:07.2 11:39/M
2 Sarah Loughman 112 10 136 56:57.8 18:22/M

Female 11 to 14

Place Name City Bib No Age Overall Time Pace
1 Lea Fields South Lyon 69 11 95 30:35.3 9:52/M
2 Devon Fields South Lyon 70 13 105 31:35.0 10:11/M

Female 15 to 19

Place Name City Bib No Age Overall Time Pace
1 Stephanie Becker Chelsea MI 206 17 104 31:18.2 10:06/M

Female 20 to 24

Place Name City Bib No Age Overall Time Pace
1 Emma Steppe Ann Arbor 108 20 7 19:43.8 6:22/M
2 Lauren MacNee Ann Arbor MI 161 22 32 23:41.5 7:38/M
3 Amy Santoro Gregory MI 215 20 60 26:12.7 8:27/M
4 Grace Augustine Ann Arbor 114 23 68 27:21.0 8:49/M
5 Madison Klumpp Ann Arbor MI 503 21 70 27:46.7 8:57/M
6 Ashley Demsky Brighton 57 22 76 28:12.1 9:06/M
7 Emily Beam Ann Arbor 48 22 85 29:15.8 9:26/M
8 Chelsea Templeton 520 21 103 31:07.3 10:02/M

Female 25 to 29

Place Name City Bib No Age Overall Time Pace
1 Jana Slovakova Manchester 36 25 33 23:44.7 7:39/M
2 Bailey Winn Milford MI 200 27 50 25:30.9 8:14/M
3 Meredith Chizek Ann Arbor 126 28 74 28:04.5 9:03/M
4 Brandi Dicamillo Chelsea 113 27 77 28:20.0 9:08/M
5 Melissa Rupnow Belleville MI 169 29 91 29:42.5 9:35/M
6 Krysti Havens Portage 116 25 106 31:36.3 10:12/M
7 Chastity Van Pelt Ypsilanti 189 28 108 31:49.8 10:16/M
8 Jennifer Sock Belleville MI 187 26 116 34:20.0 11:05/M
9 Nicole Bigelow Aa, Mi 153 28 127 39:58.2 12:54/M
10 Carole Vadovich Flint 149 25 129 42:03.0 13:34/M
11 Tammy Waidelich Ann Arbor 134 28 132 43:57.8 14:11/M

Female 30 to 34

Place Name City Bib No Age Overall Time Pace
1 Cristina Noble Brighton MI 505 33 12 20:38.2 6:39/M
2 Jeniffer Lynch Northville 94 34 47 25:17.4 8:09/M
3 Erin Shugard Ann Arbor MI 219 32 55 25:52.4 8:21/M
4 Sandra Cabrera Chicago 132 31 79 28:36.0 9:14/M
5 Kate Short Ann Arbor 135 30 96 30:41.2 9:54/M
6 Madalyn Streadwick Ann Arbor MI 517 30 109 32:21.2 10:26/M
7 Monica Reich Ann Arbor 199 33 125 39:41.7 12:48/M

Female 35 to 39

Place Name City Bib No Age Overall Time Pace
1 Theresa Stern Saline MI 507 38 8 19:48.0 6:23/M
2 Josephine Weeden Adrian 103 39 35 23:59.5 7:44/M
3 Annette Jones Dexter MI 511 39 52 25:34.7 8:15/M
4 Amy McAlar Jackson MI 210 39 59 26:09.8 8:26/M
5 Isabelle Gerin Ann Arbor MI 227 35 62 26:17.1 8:29/M
6 Julia Benben Dexter 204 38 80 28:36.9 9:14/M
7 Karla Cusack Ypsilanti 176 35 82 28:52.7 9:19/M
8 Allison McElroy Ann Arbor 191 38 84 29:12.0 9:25/M
9 Amy Boulware Livonia 125 37 86 29:23.5 9:29/M
10 Julie Agranoff Ann Arbor 60 38 90 29:39.2 9:34/M
11 Heather Kolessar Dexter 80 37 107 31:39.6 10:13/M
12 Tracy Upcott Southfield 156 38 111 32:39.0 10:32/M
13 Christine Imler Ann Arbor MI 160 38 114 33:23.3 10:46/M

Female 40 to 44

Place Name City Bib No Age Overall Time Pace
1 Jennifer Fike Ann Arbor 196 40 36 24:10.3 7:48/M
2 Pamela Conklin Wixom MI 512 40 51 25:31.4 8:14/M
3 Elizabeth Carlson Plymouth 75 44 53 25:45.0 8:18/M
4 Anne Bannister Ann Arbor 177 43 88 29:35.9 9:33/M
5 Sharon Tudor Commerce Twp 122 41 94 30:17.8 9:46/M
6 Elaine Tadajewski Commerce Twp MI 97 41 112 32:40.2 10:32/M
7 Wendy Cooper Aa, Mi 201 40 121 36:20.0 11:43/M
8 Juli Anderson Pennington 92 43 124 38:46.7 12:30/M
9 Kim Turner South Lyon 53 40 128 41:39.1 13:26/M

Female 45 to 49

Place Name City Bib No Age Overall Time Pace
1 Christi Becker Chelsea MI 207 47 43 24:32.1 7:55/M
2 Pam Harpst Detroit MI 214 48 57 25:58.7 8:23/M
3 Karen Anderson Ann Arbor 143 48 64 26:18.0 8:29/M
4 Debi Seimetz St. Pete Beach 118 49 83 29:09.1 9:24/M
5 Janice Smith Milan 171 47 113 33:11.2 10:42/M
6 Anne Danowski Hartlan MI 164 49 119 35:54.5 11:35/M

Female 50 to 54

Place Name City Bib No Age Overall Time Pace
1 Donna Smith Dexter 39 54 66 26:33.7 8:34/M
2 Maureen Beeler Plymouth MI 213 53 69 27:25.6 8:51/M
3 Susan Carbott Northville 117 50 97 30:48.1 9:56/M
4 Patrice Aaron Ann Arbor MI 514 50 100 31:04.2 10:01/M

Female 55 to 59

Place Name City Bib No Age Overall Time Pace
1 Karen Cox Ann Arbor 170 57 134 47:52.5 15:26/M

Female 60 to 69

Place Name City Bib No Age Overall Time Pace
1 Shirley Torrance Saline MI 128 62 75 28:11.3 9:05/M
2 Frances Carly Kent 159 60 115 33:23.6 10:46/M
3 Hsia-Lien Lin Ann Arbor 140 61 117 35:12.9 11:21/M
4 Lin Siebert Dexter 180 66 133 46:30.8 15:00/M

Female 70 to 79

Place Name City Bib No Age Overall Time Pace
1 Maria-Rosa McCabe Ann Arbor 157 72 135 50:02.4 16:08/M